Portada
METAR-TAF:

METAR-TAF

Aeropuertos :

Base aérea

Tulln an der Donau, Austria

latitud: 48-19N, longitud: 016-07E, altitud: 175 m

METAR: falta

Hora: 04:44 (02:44 UTC)

Pronóstico

El informe se hizo hace 15 horas y 29 minutos, a las 11:15 UTC
Pronóstico válido del 09 a las 12 UTC al 09 a las 21 UTC
Viento 3 kt con dirección variable
Visibilidad 10 km o más
Escasas nubes a una altura de 5000 ft
Nubes dispersas a una altura de 12000 ft
Temporalmente
del 09 a las 12 UTC al 09 a las 16 UTC
Viento 6 kt del suroeste

TAF: LOXT 091115Z 0912/0921 VRB03KT 9999 FEW050 SCT120 TEMPO 0912/0916 23006KT

Observaciones y pronósticos meteorológicos de más de 4000 aeropuertos (mensajes METAR y TAF).

Los puntos amarillos y rojos representan las estaciones disponibles.

Ponga el ratón en el punto deseado para ver el nombre de la estación.

Haga clic para ver las observaciones y los pronósticos meteorológicos.

Para cambiar el mapa : haga clic en los botones verdes con una cruz de color negro para hacer un zoom, en el botón verde con un guión para alejar o en las flechas verdes para mapas adyacentes.


METAR-TAF: